createdAt,value
2023-01-18T00:04:38.527Z,13.23
2023-01-18T00:09:40.103Z,13.68
2023-01-18T00:14:41.693Z,12.45
2023-01-18T00:19:43.415Z,12.25
2023-01-18T00:24:44.952Z,13.30
2023-01-18T00:29:46.460Z,14.43
2023-01-18T00:34:50.384Z,16.30
2023-01-18T00:39:52.051Z,13.15
2023-01-18T00:44:53.611Z,13.25
2023-01-18T00:49:55.243Z,15.30
2023-01-18T00:54:56.844Z,14.98
2023-01-18T00:59:58.351Z,15.60
2023-01-18T01:05:00.318Z,12.13
2023-01-18T01:10:01.844Z,14.40
2023-01-18T01:15:03.685Z,13.27
2023-01-18T01:20:05.939Z,12.95
2023-01-18T01:25:07.967Z,12.23
2023-01-18T01:30:09.984Z,14.93
2023-01-18T01:35:11.568Z,14.82
2023-01-18T01:40:13.111Z,13.98
2023-01-18T01:45:14.655Z,13.52
2023-01-18T01:50:31.560Z,13.70
2023-01-18T02:00:36.960Z,13.82
2023-01-18T02:05:45.302Z,11.68
2023-01-18T02:10:46.847Z,13.35
2023-01-18T02:16:10.135Z,14.98
2023-01-18T02:21:16.510Z,15.90
2023-01-18T02:26:29.117Z,13.43
2023-01-18T02:31:37.357Z,12.07
2023-01-18T02:36:44.805Z,13.15
2023-01-18T02:41:51.726Z,13.80
2023-01-18T02:46:53.252Z,12.40
2023-01-18T02:52:06.829Z,15.10
2023-01-18T02:57:15.192Z,14.25
2023-01-18T03:02:19.340Z,15.15
2023-01-18T03:07:26.943Z,15.52
2023-01-18T03:12:56.563Z,17.20
2023-01-18T03:18:06.403Z,16.80
2023-01-18T03:23:17.590Z,17.23
2023-01-18T03:28:25.561Z,14.57
2023-01-18T03:33:31.290Z,14.10
2023-01-18T03:38:34.753Z,13.70
2023-01-18T03:43:37.319Z,13.82
2023-01-18T03:48:38.953Z,14.23
2023-01-18T03:54:04.493Z,14.43
2023-01-18T03:59:07.805Z,13.45
2023-01-18T04:04:09.316Z,14.57
2023-01-18T04:09:11.447Z,16.60
2023-01-18T04:14:12.961Z,17.17
2023-01-18T04:19:14.454Z,16.80
2023-01-18T04:24:16.080Z,17.17
2023-01-18T04:29:17.629Z,17.77
2023-01-18T04:34:19.191Z,15.63
2023-01-18T04:39:20.845Z,16.83
2023-01-18T04:44:22.449Z,13.95
2023-01-18T04:49:23.987Z,18.70
2023-01-18T04:54:25.564Z,17.88
2023-01-18T04:59:27.097Z,19.42
2023-01-18T05:04:28.664Z,20.27
2023-01-18T05:09:30.264Z,19.00
2023-01-18T05:14:31.799Z,17.45
2023-01-18T05:19:33.619Z,17.25
2023-01-18T05:24:35.165Z,16.17
2023-01-18T05:29:36.749Z,14.82
2023-01-18T05:34:38.371Z,15.23
2023-01-18T05:39:39.940Z,17.45
2023-01-18T05:44:41.672Z,18.00
2023-01-18T05:49:43.225Z,18.90
2023-01-18T05:54:44.781Z,19.42
2023-01-18T05:59:46.287Z,17.40
2023-01-18T06:04:47.850Z,17.63
2023-01-18T06:09:49.509Z,17.75
2023-01-18T06:14:51.215Z,17.98
2023-01-18T06:19:52.796Z,18.48
2023-01-18T06:24:54.333Z,18.30
2023-01-18T06:29:55.843Z,18.33
2023-01-18T06:34:57.425Z,16.65
2023-01-18T06:40:00.220Z,18.15
2023-01-18T06:45:03.323Z,18.50
2023-01-18T06:50:05.293Z,19.85
2023-01-18T06:55:07.082Z,19.20
2023-01-18T07:00:09.702Z,19.92
2023-01-18T07:05:11.307Z,19.67
2023-01-18T07:10:15.440Z,19.92
2023-01-18T07:15:22.717Z,19.45
2023-01-18T07:20:24.865Z,21.35
2023-01-18T07:25:26.512Z,20.13
2023-01-18T07:30:28.341Z,21.50
2023-01-18T07:35:30.149Z,20.60
2023-01-18T07:40:31.844Z,20.33
2023-01-18T07:45:33.419Z,18.55
2023-01-18T07:50:34.949Z,19.67
2023-01-18T07:55:36.504Z,19.10
2023-01-18T08:00:38.063Z,21.17
2023-01-18T08:05:39.787Z,21.42
2023-01-18T08:10:42.416Z,22.88
2023-01-18T08:15:44.105Z,24.05
2023-01-18T08:20:46.966Z,23.15
2023-01-18T08:25:48.582Z,24.35
2023-01-18T08:30:50.290Z,25.73
2023-01-18T08:35:51.858Z,28.20
2023-01-18T08:40:53.513Z,28.48
2023-01-18T08:45:55.046Z,29.15
2023-01-18T08:51:01.196Z,29.67
2023-01-18T08:56:06.433Z,29.10
2023-01-18T09:01:08.939Z,28.90
2023-01-18T09:06:12.986Z,32.13
2023-01-18T09:11:15.868Z,30.45
2023-01-18T09:16:17.418Z,32.13
2023-01-18T09:21:18.996Z,30.67
2023-01-18T09:26:20.630Z,29.88
2023-01-18T09:31:24.797Z,29.95
2023-01-18T09:36:26.857Z,26.85
2023-01-18T09:41:37.441Z,28.40
2023-01-18T09:46:41.947Z,30.85
2023-01-18T09:52:05.192Z,29.38
2023-01-18T09:57:20.859Z,27.80
2023-01-18T10:02:29.352Z,23.38
2023-01-18T10:07:35.816Z,24.48
2023-01-18T10:13:21.397Z,23.52
2023-01-18T10:18:26.008Z,22.05
2023-01-18T10:23:34.673Z,19.70
2023-01-18T10:28:42.131Z,20.45
2023-01-18T10:33:44.695Z,20.98
2023-01-18T10:38:48.693Z,20.85
2023-01-18T10:43:50.328Z,22.48
2023-01-18T10:48:54.201Z,19.45
2023-01-18T10:53:56.114Z,18.45
2023-01-18T10:58:59.797Z,15.80
2023-01-18T11:04:04.735Z,16.27
2023-01-18T11:09:41.304Z,14.30
2023-01-18T11:14:43.372Z,11.35
2023-01-18T11:19:45.002Z,10.45
2023-01-18T11:24:52.531Z,10.77
2023-01-18T11:29:54.252Z,10.65
2023-01-18T11:34:59.787Z,10.80
2023-01-18T11:40:19.956Z,10.15
2023-01-18T11:45:40.746Z,9.57
2023-01-18T11:50:51.553Z,8.77
2023-01-18T11:55:58.302Z,10.25
2023-01-18T12:06:39.117Z,8.38
2023-01-18T12:12:17.375Z,9.00
2023-01-18T12:17:25.747Z,8.38
2023-01-18T12:22:58.233Z,7.53
2023-01-18T12:28:08.054Z,7.88
2023-01-18T12:33:17.869Z,7.93
2023-01-18T12:38:27.819Z,8.13
2023-01-18T12:43:44.252Z,6.47
2023-01-18T12:48:52.953Z,6.15
2023-01-18T12:54:06.850Z,5.18
2023-01-18T12:59:18.226Z,3.33
2023-01-18T13:04:26.191Z,3.17
2023-01-18T13:09:33.040Z,2.60
2023-01-18T13:15:09.124Z,2.92
2023-01-18T13:20:25.272Z,3.72
2023-01-18T13:25:45.539Z,2.97
2023-01-18T13:30:53.970Z,2.90
2023-01-18T13:36:13.293Z,3.20
2023-01-18T13:41:21.387Z,2.85
2023-01-18T13:46:25.658Z,3.10
2023-01-18T13:51:39.107Z,2.78
2023-01-18T13:56:41.072Z,2.88
2023-01-18T14:01:45.944Z,2.80
2023-01-18T14:06:49.440Z,3.72
2023-01-18T14:11:55.427Z,2.83
2023-01-18T14:17:05.717Z,2.83
2023-01-18T14:22:33.479Z,2.72
2023-01-18T14:27:42.948Z,2.20
2023-01-18T14:33:02.132Z,2.30
2023-01-18T14:38:16.787Z,2.42
2023-01-18T14:43:30.070Z,2.60
2023-01-18T14:48:34.668Z,2.53
2023-01-18T14:53:45.982Z,3.20
2023-01-18T14:58:51.884Z,2.53
2023-01-18T15:03:55.258Z,3.17
2023-01-18T15:08:56.963Z,3.10
2023-01-18T15:13:58.954Z,2.83
2023-01-18T15:19:01.013Z,2.55
2023-01-18T15:24:09.228Z,2.60
2023-01-18T15:29:19.767Z,2.72
2023-01-18T15:34:33.407Z,3.30
2023-01-18T15:39:35.051Z,2.65
2023-01-18T15:44:52.351Z,2.58
2023-01-18T15:50:00.314Z,2.60
2023-01-18T15:55:07.318Z,2.88
2023-01-18T16:00:26.480Z,3.40
2023-01-18T16:05:28.247Z,3.30
2023-01-18T16:10:30.020Z,4.63
2023-01-18T16:15:31.729Z,3.95
2023-01-18T16:20:35.356Z,2.55
2023-01-18T16:25:37.448Z,3.03
2023-01-18T16:30:40.307Z,2.70
2023-01-18T16:35:41.982Z,2.75
2023-01-18T16:40:46.071Z,3.65
2023-01-18T16:45:49.896Z,3.53
2023-01-18T16:50:51.974Z,4.35
2023-01-18T16:55:53.750Z,3.47
2023-01-18T17:01:11.939Z,3.50
2023-01-18T17:06:19.600Z,4.65
2023-01-18T17:11:21.094Z,5.25
2023-01-18T17:16:22.948Z,4.68
2023-01-18T17:21:24.546Z,4.00
2023-01-18T17:26:26.158Z,4.32
2023-01-18T17:31:28.755Z,4.40
2023-01-18T17:36:30.328Z,5.47
2023-01-18T17:41:32.144Z,8.55
2023-01-18T17:46:34.174Z,7.75
2023-01-18T17:51:35.799Z,6.50
2023-01-18T17:56:37.341Z,6.65
2023-01-18T18:01:38.978Z,8.10
2023-01-18T18:06:49.744Z,7.47
2023-01-18T18:11:56.821Z,5.93
2023-01-18T18:16:58.447Z,6.03
2023-01-18T18:22:01.068Z,6.05
2023-01-18T18:27:03.061Z,8.55
2023-01-18T18:32:05.070Z,6.88
2023-01-18T18:37:07.156Z,7.03
2023-01-18T18:42:08.724Z,6.63
2023-01-18T18:47:10.247Z,10.35
2023-01-18T18:52:12.044Z,10.88
2023-01-18T18:57:13.791Z,7.70
2023-01-18T19:02:16.394Z,8.27
2023-01-18T19:07:18.070Z,6.85
2023-01-18T19:12:19.658Z,6.90
2023-01-18T19:17:29.855Z,8.23
2023-01-18T19:22:32.266Z,9.23
2023-01-18T19:27:34.145Z,10.40
2023-01-18T19:32:36.220Z,8.07
2023-01-18T19:37:37.842Z,7.35
2023-01-18T19:42:39.855Z,7.32
2023-01-18T19:47:41.576Z,7.03
2023-01-18T19:52:43.205Z,7.65
2023-01-18T19:57:44.838Z,7.60
2023-01-18T20:02:46.558Z,7.53
2023-01-18T20:07:48.268Z,8.05
2023-01-18T20:12:50.150Z,11.27
2023-01-18T20:17:51.793Z,8.07
2023-01-18T20:22:53.578Z,8.75
2023-01-18T20:27:55.280Z,7.93
2023-01-18T20:32:57.196Z,7.97
2023-01-18T20:37:58.927Z,7.45
2023-01-18T20:43:01.682Z,8.20
2023-01-18T20:48:04.047Z,7.60
2023-01-18T20:53:05.654Z,6.88
2023-01-18T20:58:07.273Z,6.80
2023-01-18T21:03:13.343Z,8.00
2023-01-18T21:08:15.123Z,5.78
2023-01-18T21:13:19.663Z,5.82
2023-01-18T21:18:22.035Z,7.55
2023-01-18T21:23:24.713Z,6.32
2023-01-18T21:28:26.617Z,6.65
2023-01-18T21:33:28.410Z,6.60
2023-01-18T21:38:29.957Z,5.60
2023-01-18T21:43:31.564Z,6.63
2023-01-18T21:48:33.451Z,7.38
2023-01-18T21:53:35.287Z,6.00
2023-01-18T21:58:36.825Z,6.68
2023-01-18T22:03:38.359Z,6.97
2023-01-18T22:08:40.045Z,5.57
2023-01-18T22:13:41.710Z,7.50
2023-01-18T22:18:43.316Z,6.70
2023-01-18T22:23:48.196Z,7.55
2023-01-18T22:28:50.717Z,6.82
2023-01-18T22:33:52.347Z,8.38
2023-01-18T22:38:54.228Z,7.65
2023-01-18T22:43:56.275Z,7.68
2023-01-18T22:48:58.678Z,8.68
2023-01-18T22:54:00.169Z,6.97
2023-01-18T22:59:01.769Z,7.45
2023-01-18T23:04:04.258Z,7.95
2023-01-18T23:09:05.968Z,7.00
2023-01-18T23:14:07.784Z,7.00
2023-01-18T23:19:09.367Z,6.85
2023-01-18T23:24:11.059Z,6.70
2023-01-18T23:29:12.678Z,7.13
2023-01-18T23:34:14.243Z,5.90
2023-01-18T23:39:15.819Z,6.95
2023-01-18T23:44:17.580Z,7.38
2023-01-18T23:49:19.127Z,7.40
2023-01-18T23:54:20.740Z,6.80
2023-01-18T23:59:22.340Z,6.65
